Capitol Logistics 35




PHNL
Daniel K Inouye International Airport
Honolulu, Hawaii
KCVG
Cincinnati/Northern Kentucky International Airport
Covington, Kentucky

Activity Log

Date Flight Route Aircraft Duration
No Flights Yet

Route Details

Aircraft Information
Group: Trans-Pacific Ops
Types: B744,B763,MD11
Route Data
Demand: H
Distance: 3850nm
Duration: 8h 19m
Recm'd Route: MKK4 CLUTS R465 CINNY SNS NTELL Q162 KENNO HVE J28 GCK J110 STL ENL SARGO3
Origin Wx: PHNL 270453Z 05010KT 10SM CLR 25/16 A2999 RMK AO2 SLP153 T02500161
Dest. Wx: KCVG 270518Z 23008KT 10SM FEW009 BKN042 OVC050 17/16 A2982 RMK AO2 RAB0453E05 P0000 T01720161 $
Notes:

Financial History
Total Freight: 0lbs
Average Load: 0lbs/flt
Fuel Used: 0lbs
Avg. Fuel Used: 0lbs/flt
Fuel Expense: $0
Avg. Fuel Expense: $0
Avg. Fuel Cost: $0/lbs
Total Gross Income: $0
Pilot Pay: $0
Total Expenses: $0
Total Revenue: $0
Average Revenue: $0